sensor_id;sensor_type;location;lat;lon;timestamp;pressure;altitude;pressure_sealevel;temperature;humidity
58072;BME280;60383;46.626;18.866;2024-02-16T00:01:01;101164.56;;;8.15;85.37
58072;BME280;60383;46.626;18.866;2024-02-16T00:03:27;101165.19;;;8.07;88.10
58072;BME280;60383;46.626;18.866;2024-02-16T00:05:53;101157.84;;;7.96;86.84
58072;BME280;60383;46.626;18.866;2024-02-16T00:08:19;101161.81;;;7.81;87.46
58072;BME280;60383;46.626;18.866;2024-02-16T00:10:48;101159.78;;;7.60;86.61
58072;BME280;60383;46.626;18.866;2024-02-16T00:13:14;101161.34;;;7.40;85.85
58072;BME280;60383;46.626;18.866;2024-02-16T00:15:40;101151.81;;;7.46;83.85
58072;BME280;60383;46.626;18.866;2024-02-16T00:18:06;101153.06;;;7.53;82.70
58072;BME280;60383;46.626;18.866;2024-02-16T00:20:31;101155.16;;;7.49;81.76
58072;BME280;60383;46.626;18.866;2024-02-16T00:22:57;101144.69;;;7.67;81.27
58072;BME280;60383;46.626;18.866;2024-02-16T00:25:23;101154.38;;;7.72;81.76
58072;BME280;60383;46.626;18.866;2024-02-16T00:27:49;101147.75;;;7.63;82.31
58072;BME280;60383;46.626;18.866;2024-02-16T00:30:16;101148.66;;;7.63;82.98
58072;BME280;60383;46.626;18.866;2024-02-16T00:32:43;101148.78;;;7.62;84.61
58072;BME280;60383;46.626;18.866;2024-02-16T00:35:11;101143.59;;;7.34;85.44
58072;BME280;60383;46.626;18.866;2024-02-16T00:37:36;101141.22;;;7.30;86.76
58072;BME280;60383;46.626;18.866;2024-02-16T00:40:03;101136.75;;;7.17;85.38
58072;BME280;60383;46.626;18.866;2024-02-16T00:42:29;101147.06;;;7.01;84.27
58072;BME280;60383;46.626;18.866;2024-02-16T00:44:56;101148.00;;;6.88;83.91
58072;BME280;60383;46.626;18.866;2024-02-16T00:47:22;101141.56;;;6.90;84.26
58072;BME280;60383;46.626;18.866;2024-02-16T00:49:49;101151.47;;;6.91;83.17
58072;BME280;60383;46.626;18.866;2024-02-16T00:52:14;101151.13;;;6.71;83.29
58072;BME280;60383;46.626;18.866;2024-02-16T00:54:40;101158.75;;;6.66;83.73
58072;BME280;60383;46.626;18.866;2024-02-16T00:57:05;101153.13;;;7.04;80.86
58072;BME280;60383;46.626;18.866;2024-02-16T00:59:31;101152.41;;;7.02;80.78
58072;BME280;60383;46.626;18.866;2024-02-16T01:01:57;101147.22;;;6.86;81.37
58072;BME280;60383;46.626;18.866;2024-02-16T01:04:22;101149.53;;;6.93;82.82
58072;BME280;60383;46.626;18.866;2024-02-16T01:06:48;101143.94;;;6.70;81.47
58072;BME280;60383;46.626;18.866;2024-02-16T01:09:14;101141.25;;;6.57;81.69
58072;BME280;60383;46.626;18.866;2024-02-16T01:11:42;101141.66;;;6.39;81.77
58072;BME280;60383;46.626;18.866;2024-02-16T01:14:08;101136.31;;;6.38;81.68
58072;BME280;60383;46.626;18.866;2024-02-16T01:16:33;101142.47;;;6.53;81.31
58072;BME280;60383;46.626;18.866;2024-02-16T01:18:59;101131.47;;;6.54;81.16
58072;BME280;60383;46.626;18.866;2024-02-16T01:21:24;101141.81;;;6.62;81.10
58072;BME280;60383;46.626;18.866;2024-02-16T01:23:50;101138.25;;;6.73;81.22
58072;BME280;60383;46.626;18.866;2024-02-16T01:26:15;101135.44;;;6.75;80.77
58072;BME280;60383;46.626;18.866;2024-02-16T01:28:41;101141.84;;;6.74;79.83
58072;BME280;60383;46.626;18.866;2024-02-16T01:31:07;101145.22;;;6.77;80.88
58072;BME280;60383;46.626;18.866;2024-02-16T01:33:35;101135.34;;;6.63;80.89
58072;BME280;60383;46.626;18.866;2024-02-16T01:36:01;101137.69;;;6.57;82.26
58072;BME280;60383;46.626;18.866;2024-02-16T01:38:27;101143.94;;;6.33;82.19
58072;BME280;60383;46.626;18.866;2024-02-16T01:40:52;101138.94;;;6.39;82.31
58072;BME280;60383;46.626;18.866;2024-02-16T01:43:21;101137.94;;;6.41;82.89
58072;BME280;60383;46.626;18.866;2024-02-16T01:45:47;101150.84;;;6.50;82.01
58072;BME280;60383;46.626;18.866;2024-02-16T01:48:14;101142.81;;;6.48;82.25
58072;BME280;60383;46.626;18.866;2024-02-16T01:50:42;101142.41;;;6.42;82.80
58072;BME280;60383;46.626;18.866;2024-02-16T01:53:09;101141.84;;;6.36;81.82
58072;BME280;60383;46.626;18.866;2024-02-16T01:55:35;101142.28;;;6.43;82.57
58072;BME280;60383;46.626;18.866;2024-02-16T01:58:00;101135.97;;;6.43;82.55
58072;BME280;60383;46.626;18.866;2024-02-16T02:00:26;101128.06;;;6.27;83.62
58072;BME280;60383;46.626;18.866;2024-02-16T02:02:51;101129.28;;;6.10;84.52
58072;BME280;60383;46.626;18.866;2024-02-16T02:05:17;101125.91;;;6.19;84.59
58072;BME280;60383;46.626;18.866;2024-02-16T02:07:43;101129.63;;;5.92;85.78
58072;BME280;60383;46.626;18.866;2024-02-16T02:10:09;101124.94;;;6.07;84.94
58072;BME280;60383;46.626;18.866;2024-02-16T02:12:37;101123.19;;;6.19;85.89
58072;BME280;60383;46.626;18.866;2024-02-16T02:15:03;101121.00;;;6.11;86.74
58072;BME280;60383;46.626;18.866;2024-02-16T02:17:30;101113.88;;;6.10;87.31
58072;BME280;60383;46.626;18.866;2024-02-16T02:19:55;101115.59;;;5.85;88.35
58072;BME280;60383;46.626;18.866;2024-02-16T02:22:21;101113.84;;;5.97;87.25
58072;BME280;60383;46.626;18.866;2024-02-16T02:24:48;101111.69;;;6.02;86.39
58072;BME280;60383;46.626;18.866;2024-02-16T02:27:16;101108.94;;;6.15;84.48
58072;BME280;60383;46.626;18.866;2024-02-16T02:29:42;101100.91;;;6.14;83.60
58072;BME280;60383;46.626;18.866;2024-02-16T02:32:08;101106.44;;;6.12;83.83
58072;BME280;60383;46.626;18.866;2024-02-16T02:34:34;101110.81;;;6.02;84.70
58072;BME280;60383;46.626;18.866;2024-02-16T02:37:01;101112.66;;;6.14;84.43
58072;BME280;60383;46.626;18.866;2024-02-16T02:39:27;101108.31;;;5.73;85.95
58072;BME280;60383;46.626;18.866;2024-02-16T02:41:52;101112.31;;;5.67;86.54
58072;BME280;60383;46.626;18.866;2024-02-16T02:44:18;101113.53;;;5.63;85.70
58072;BME280;60383;46.626;18.866;2024-02-16T02:46:44;101108.44;;;5.71;85.29
58072;BME280;60383;46.626;18.866;2024-02-16T02:49:10;101110.16;;;5.59;86.17
58072;BME280;60383;46.626;18.866;2024-02-16T02:51:35;101109.50;;;5.43;86.34
58072;BME280;60383;46.626;18.866;2024-02-16T02:54:01;101117.22;;;5.49;85.66
58072;BME280;60383;46.626;18.866;2024-02-16T02:56:26;101111.03;;;5.47;86.41
58072;BME280;60383;46.626;18.866;2024-02-16T02:58:51;101116.00;;;5.40;85.89
58072;BME280;60383;46.626;18.866;2024-02-16T03:01:18;101117.31;;;5.48;85.21
58072;BME280;60383;46.626;18.866;2024-02-16T03:03:45;101116.78;;;5.42;85.59
58072;BME280;60383;46.626;18.866;2024-02-16T03:06:12;101123.41;;;5.51;86.14
58072;BME280;60383;46.626;18.866;2024-02-16T03:08:37;101119.53;;;5.55;84.63
58072;BME280;60383;46.626;18.866;2024-02-16T03:11:03;101121.56;;;5.39;85.67
58072;BME280;60383;46.626;18.866;2024-02-16T03:13:29;101118.09;;;5.50;86.26
58072;BME280;60383;46.626;18.866;2024-02-16T03:15:55;101121.38;;;5.42;86.92
58072;BME280;60383;46.626;18.866;2024-02-16T03:18:20;101120.16;;;5.46;86.70
58072;BME280;60383;46.626;18.866;2024-02-16T03:20:47;101116.09;;;5.26;88.04
58072;BME280;60383;46.626;18.866;2024-02-16T03:23:15;101120.38;;;5.30;87.93
58072;BME280;60383;46.626;18.866;2024-02-16T03:25:41;101128.19;;;5.48;87.47
58072;BME280;60383;46.626;18.866;2024-02-16T03:28:12;101129.16;;;5.47;87.28
58072;BME280;60383;46.626;18.866;2024-02-16T03:30:39;101121.09;;;5.19;89.21
58072;BME280;60383;46.626;18.866;2024-02-16T03:33:04;101123.03;;;5.17;89.22
58072;BME280;60383;46.626;18.866;2024-02-16T03:35:30;101120.44;;;5.16;89.05
58072;BME280;60383;46.626;18.866;2024-02-16T03:37:56;101120.56;;;5.27;88.75
58072;BME280;60383;46.626;18.866;2024-02-16T03:40:22;101122.91;;;5.06;88.54
58072;BME280;60383;46.626;18.866;2024-02-16T03:42:48;101126.06;;;5.12;89.43
58072;BME280;60383;46.626;18.866;2024-02-16T03:45:13;101127.25;;;5.08;89.63
58072;BME280;60383;46.626;18.866;2024-02-16T03:47:42;101130.69;;;5.25;88.53
58072;BME280;60383;46.626;18.866;2024-02-16T03:50:08;101131.78;;;5.48;87.23
58072;BME280;60383;46.626;18.866;2024-02-16T03:52:33;101136.44;;;5.33;87.89
58072;BME280;60383;46.626;18.866;2024-02-16T03:54:59;101135.59;;;5.58;88.64
58072;BME280;60383;46.626;18.866;2024-02-16T03:57:25;101136.88;;;5.40;88.14
58072;BME280;60383;46.626;18.866;2024-02-16T03:59:51;101141.31;;;5.28;87.55
58072;BME280;60383;46.626;18.866;2024-02-16T04:02:16;101141.50;;;5.12;88.15
58072;BME280;60383;46.626;18.866;2024-02-16T04:04:42;101144.59;;;4.93;88.71
58072;BME280;60383;46.626;18.866;2024-02-16T04:07:08;101143.25;;;5.13;88.28
58072;BME280;60383;46.626;18.866;2024-02-16T04:09:34;101151.94;;;5.18;88.65
58072;BME280;60383;46.626;18.866;2024-02-16T04:12:00;101143.69;;;5.20;88.25
58072;BME280;60383;46.626;18.866;2024-02-16T04:14:26;101149.09;;;5.07;89.09
58072;BME280;60383;46.626;18.866;2024-02-16T04:16:52;101158.31;;;4.50;91.02
58072;BME280;60383;46.626;18.866;2024-02-16T04:19:18;101151.66;;;4.68;90.28
58072;BME280;60383;46.626;18.866;2024-02-16T04:21:43;101156.78;;;4.73;91.31
58072;BME280;60383;46.626;18.866;2024-02-16T04:24:09;101159.09;;;4.79;90.49
58072;BME280;60383;46.626;18.866;2024-02-16T04:26:34;101159.97;;;4.79;90.35
58072;BME280;60383;46.626;18.866;2024-02-16T04:29:00;101159.72;;;4.97;89.24
58072;BME280;60383;46.626;18.866;2024-02-16T04:31:25;101159.97;;;4.79;89.42
58072;BME280;60383;46.626;18.866;2024-02-16T04:33:51;101161.03;;;4.77;90.25
58072;BME280;60383;46.626;18.866;2024-02-16T04:36:16;101154.56;;;4.65;90.53
58072;BME280;60383;46.626;18.866;2024-02-16T04:38:42;101157.69;;;4.59;91.15
58072;BME280;60383;46.626;18.866;2024-02-16T04:41:08;101158.91;;;4.40;91.41
58072;BME280;60383;46.626;18.866;2024-02-16T04:43:34;101161.78;;;4.52;91.18
58072;BME280;60383;46.626;18.866;2024-02-16T04:46:00;101160.69;;;4.54;91.22
58072;BME280;60383;46.626;18.866;2024-02-16T04:48:25;101156.84;;;4.58;90.82
58072;BME280;60383;46.626;18.866;2024-02-16T04:50:51;101153.44;;;4.55;91.29
58072;BME280;60383;46.626;18.866;2024-02-16T04:53:17;101158.91;;;4.68;91.20
58072;BME280;60383;46.626;18.866;2024-02-16T04:55:42;101148.41;;;4.63;90.80
58072;BME280;60383;46.626;18.866;2024-02-16T04:58:08;101157.50;;;4.62;89.90
58072;BME280;60383;46.626;18.866;2024-02-16T05:00:39;101147.22;;;4.67;89.91
58072;BME280;60383;46.626;18.866;2024-02-16T05:03:04;101150.78;;;4.68;90.52
58072;BME280;60383;46.626;18.866;2024-02-16T05:05:30;101159.25;;;4.63;90.52
58072;BME280;60383;46.626;18.866;2024-02-16T05:08:00;101154.88;;;4.60;90.93
58072;BME280;60383;46.626;18.866;2024-02-16T05:10:25;101157.97;;;4.54;91.69
58072;BME280;60383;46.626;18.866;2024-02-16T05:12:51;101153.50;;;4.68;91.45
58072;BME280;60383;46.626;18.866;2024-02-16T05:15:16;101152.63;;;4.67;91.14
58072;BME280;60383;46.626;18.866;2024-02-16T05:17:42;101157.09;;;4.68;91.29
58072;BME280;60383;46.626;18.866;2024-02-16T05:20:11;101153.09;;;4.74;91.48
58072;BME280;60383;46.626;18.866;2024-02-16T05:22:44;101158.91;;;4.68;91.59
58072;BME280;60383;46.626;18.866;2024-02-16T05:25:13;101157.38;;;4.91;90.80
58072;BME280;60383;46.626;18.866;2024-02-16T05:27:39;101156.47;;;4.77;90.60
58072;BME280;60383;46.626;18.866;2024-02-16T05:30:06;101155.09;;;4.85;91.17
58072;BME280;60383;46.626;18.866;2024-02-16T05:32:37;101163.22;;;4.85;91.14
58072;BME280;60383;46.626;18.866;2024-02-16T05:35:07;101155.97;;;4.85;91.57
58072;BME280;60383;46.626;18.866;2024-02-16T05:37:47;101161.88;;;4.77;91.07
58072;BME280;60383;46.626;18.866;2024-02-16T05:40:15;101167.53;;;4.74;91.78
58072;BME280;60383;46.626;18.866;2024-02-16T05:42:52;101162.13;;;4.74;92.23
58072;BME280;60383;46.626;18.866;2024-02-16T05:45:18;101178.47;;;4.87;91.62
58072;BME280;60383;46.626;18.866;2024-02-16T05:47:45;101172.63;;;4.93;91.45
58072;BME280;60383;46.626;18.866;2024-02-16T05:50:14;101174.56;;;4.91;91.30
58072;BME280;60383;46.626;18.866;2024-02-16T05:52:41;101171.38;;;4.85;92.24
58072;BME280;60383;46.626;18.866;2024-02-16T05:55:10;101187.25;;;4.63;93.21
58072;BME280;60383;46.626;18.866;2024-02-16T05:57:36;101181.22;;;4.73;93.77
58072;BME280;60383;46.626;18.866;2024-02-16T06:00:07;101180.88;;;4.77;93.41
58072;BME280;60383;46.626;18.866;2024-02-16T06:02:33;101179.25;;;4.75;93.11
58072;BME280;60383;46.626;18.866;2024-02-16T06:05:00;101181.63;;;4.94;93.15
58072;BME280;60383;46.626;18.866;2024-02-16T06:07:26;101184.41;;;5.20;91.83
58072;BME280;60383;46.626;18.866;2024-02-16T06:09:51;101177.09;;;5.35;90.97
58072;BME280;60383;46.626;18.866;2024-02-16T06:12:17;101183.25;;;5.37;90.60
58072;BME280;60383;46.626;18.866;2024-02-16T06:14:43;101189.78;;;5.34;90.19
58072;BME280;60383;46.626;18.866;2024-02-16T06:17:08;101188.22;;;5.70;88.59
58072;BME280;60383;46.626;18.866;2024-02-16T06:19:35;101189.44;;;6.18;85.70
58072;BME280;60383;46.626;18.866;2024-02-16T06:22:00;101187.69;;;6.30;84.97
58072;BME280;60383;46.626;18.866;2024-02-16T06:24:26;101189.44;;;6.18;84.42
58072;BME280;60383;46.626;18.866;2024-02-16T06:26:51;101187.66;;;5.78;87.11
58072;BME280;60383;46.626;18.866;2024-02-16T06:29:17;101184.88;;;6.18;86.14
58072;BME280;60383;46.626;18.866;2024-02-16T06:31:45;101186.53;;;6.71;83.66
58072;BME280;60383;46.626;18.866;2024-02-16T06:34:13;101180.75;;;7.00;82.26
58072;BME280;60383;46.626;18.866;2024-02-16T06:36:38;101189.34;;;6.94;82.06
58072;BME280;60383;46.626;18.866;2024-02-16T06:39:03;101184.47;;;6.99;80.57
58072;BME280;60383;46.626;18.866;2024-02-16T06:41:29;101198.00;;;6.50;80.97
58072;BME280;60383;46.626;18.866;2024-02-16T06:43:54;101199.06;;;6.61;79.77
58072;BME280;60383;46.626;18.866;2024-02-16T06:46:20;101192.44;;;7.13;77.42
58072;BME280;60383;46.626;18.866;2024-02-16T06:48:45;101199.69;;;7.26;75.09
58072;BME280;60383;46.626;18.866;2024-02-16T06:51:11;101201.25;;;7.41;73.97
58072;BME280;60383;46.626;18.866;2024-02-16T06:53:36;101194.06;;;7.40;73.64
58072;BME280;60383;46.626;18.866;2024-02-16T06:56:01;101204.25;;;8.42;69.12
58072;BME280;60383;46.626;18.866;2024-02-16T06:58:28;101204.25;;;8.76;67.90
58072;BME280;60383;46.626;18.866;2024-02-16T07:00:54;101204.91;;;8.68;67.44
58072;BME280;60383;46.626;18.866;2024-02-16T07:03:19;101205.00;;;8.78;66.31
58072;BME280;60383;46.626;18.866;2024-02-16T07:05:45;101214.63;;;9.05;66.13
58072;BME280;60383;46.626;18.866;2024-02-16T07:08:10;101218.03;;;9.30;65.47
58072;BME280;60383;46.626;18.866;2024-02-16T07:10:36;101213.13;;;10.29;61.49
58072;BME280;60383;46.626;18.866;2024-02-16T07:13:02;101208.25;;;11.24;59.51
58072;BME280;60383;46.626;18.866;2024-02-16T07:15:27;101208.53;;;11.50;57.43
58072;BME280;60383;46.626;18.866;2024-02-16T07:17:53;101202.59;;;11.75;57.14
58072;BME280;60383;46.626;18.866;2024-02-16T07:20:18;101219.91;;;11.95;55.42
58072;BME280;60383;46.626;18.866;2024-02-16T07:22:44;101215.75;;;12.01;54.91
58072;BME280;60383;46.626;18.866;2024-02-16T07:25:12;101220.53;;;12.46;55.43
58072;BME280;60383;46.626;18.866;2024-02-16T07:27:38;101215.38;;;12.61;53.73
58072;BME280;60383;46.626;18.866;2024-02-16T07:30:04;101219.84;;;12.34;53.73
58072;BME280;60383;46.626;18.866;2024-02-16T07:32:29;101232.78;;;12.04;53.87
58072;BME280;60383;46.626;18.866;2024-02-16T07:34:55;101227.88;;;11.98;55.11
58072;BME280;60383;46.626;18.866;2024-02-16T07:37:20;101232.47;;;12.17;54.73
58072;BME280;60383;46.626;18.866;2024-02-16T07:39:46;101228.75;;;11.69;55.52
58072;BME280;60383;46.626;18.866;2024-02-16T07:42:11;101238.97;;;11.18;55.60
58072;BME280;60383;46.626;18.866;2024-02-16T07:44:38;101226.72;;;11.71;55.65
58072;BME280;60383;46.626;18.866;2024-02-16T07:47:04;101232.22;;;11.61;55.36
58072;BME280;60383;46.626;18.866;2024-02-16T07:49:30;101224.09;;;11.79;54.91
58072;BME280;60383;46.626;18.866;2024-02-16T07:51:55;101235.66;;;11.93;54.90
58072;BME280;60383;46.626;18.866;2024-02-16T07:54:21;101230.34;;;11.72;54.36
58072;BME280;60383;46.626;18.866;2024-02-16T07:56:46;101229.75;;;11.97;54.80
58072;BME280;60383;46.626;18.866;2024-02-16T07:59:12;101230.34;;;11.81;53.48
58072;BME280;60383;46.626;18.866;2024-02-16T08:01:37;101224.97;;;11.90;53.17
58072;BME280;60383;46.626;18.866;2024-02-16T08:04:04;101230.94;;;11.56;55.21
58072;BME280;60383;46.626;18.866;2024-02-16T08:06:29;101228.31;;;11.93;54.14
58072;BME280;60383;46.626;18.866;2024-02-16T08:08:55;101227.25;;;12.24;52.39
58072;BME280;60383;46.626;18.866;2024-02-16T08:11:20;101226.47;;;12.41;52.33
58072;BME280;60383;46.626;18.866;2024-02-16T08:13:46;101234.25;;;11.69;52.87
58072;BME280;60383;46.626;18.866;2024-02-16T08:16:12;101233.50;;;11.96;53.96
58072;BME280;60383;46.626;18.866;2024-02-16T08:18:37;101237.09;;;11.77;54.90
58072;BME280;60383;46.626;18.866;2024-02-16T08:21:03;101233.56;;;12.34;53.50
58072;BME280;60383;46.626;18.866;2024-02-16T08:23:28;101231.31;;;12.57;52.73
58072;BME280;60383;46.626;18.866;2024-02-16T08:25:53;101232.13;;;12.40;52.54
58072;BME280;60383;46.626;18.866;2024-02-16T08:28:19;101229.25;;;12.69;50.54
58072;BME280;60383;46.626;18.866;2024-02-16T08:30:44;101227.81;;;12.65;49.88
58072;BME280;60383;46.626;18.866;2024-02-16T08:33:11;101230.13;;;12.70;50.29
58072;BME280;60383;46.626;18.866;2024-02-16T08:35:37;101228.38;;;12.69;50.28
58072;BME280;60383;46.626;18.866;2024-02-16T08:38:03;101229.13;;;12.61;51.00
58072;BME280;60383;46.626;18.866;2024-02-16T08:40:29;101228.91;;;12.82;50.43
58072;BME280;60383;46.626;18.866;2024-02-16T08:42:54;101223.44;;;13.18;50.40
58072;BME280;60383;46.626;18.866;2024-02-16T08:45:20;101234.88;;;13.23;48.77
58072;BME280;60383;46.626;18.866;2024-02-16T08:47:45;101228.13;;;13.36;47.85
58072;BME280;60383;46.626;18.866;2024-02-16T08:50:11;101224.94;;;13.58;49.16
58072;BME280;60383;46.626;18.866;2024-02-16T08:52:39;101226.63;;;13.78;48.69
58072;BME280;60383;46.626;18.866;2024-02-16T08:55:05;101222.00;;;13.78;49.55
58072;BME280;60383;46.626;18.866;2024-02-16T08:57:33;101230.66;;;13.83;49.06
58072;BME280;60383;46.626;18.866;2024-02-16T08:59:59;101231.69;;;13.46;48.69
58072;BME280;60383;46.626;18.866;2024-02-16T09:02:24;101228.38;;;13.42;48.97
58072;BME280;60383;46.626;18.866;2024-02-16T09:04:50;101232.13;;;13.23;49.85
58072;BME280;60383;46.626;18.866;2024-02-16T09:07:15;101235.38;;;13.73;47.78
58072;BME280;60383;46.626;18.866;2024-02-16T09:09:41;101224.28;;;13.83;48.34
58072;BME280;60383;46.626;18.866;2024-02-16T09:12:06;101228.41;;;14.05;46.83
58072;BME280;60383;46.626;18.866;2024-02-16T09:14:32;101232.56;;;13.83;47.33
58072;BME280;60383;46.626;18.866;2024-02-16T09:16:57;101229.13;;;14.07;46.42
58072;BME280;60383;46.626;18.866;2024-02-16T09:19:23;101229.47;;;13.86;47.16
58072;BME280;60383;46.626;18.866;2024-02-16T09:21:48;101227.44;;;13.88;48.05
58072;BME280;60383;46.626;18.866;2024-02-16T09:24:16;101235.16;;;13.66;48.07
58072;BME280;60383;46.626;18.866;2024-02-16T09:26:46;101233.22;;;13.13;48.47
58072;BME280;60383;46.626;18.866;2024-02-16T09:29:13;101223.53;;;13.26;48.79
58072;BME280;60383;46.626;18.866;2024-02-16T09:31:40;101230.03;;;12.89;48.36
58072;BME280;60383;46.626;18.866;2024-02-16T09:34:06;101227.88;;;12.83;49.11
58072;BME280;60383;46.626;18.866;2024-02-16T09:36:32;101229.13;;;12.61;50.83
58072;BME280;60383;46.626;18.866;2024-02-16T09:38:57;101234.56;;;12.33;50.80
58072;BME280;60383;46.626;18.866;2024-02-16T09:41:22;101238.03;;;12.73;50.71
58072;BME280;60383;46.626;18.866;2024-02-16T09:43:48;101241.75;;;13.09;50.72
58072;BME280;60383;46.626;18.866;2024-02-16T09:46:15;101240.69;;;12.65;51.25
58072;BME280;60383;46.626;18.866;2024-02-16T09:48:40;101240.09;;;13.63;49.58
58072;BME280;60383;46.626;18.866;2024-02-16T09:51:08;101243.41;;;13.84;47.73
58072;BME280;60383;46.626;18.866;2024-02-16T09:53:34;101241.41;;;13.77;48.15
58072;BME280;60383;46.626;18.866;2024-02-16T09:55:59;101240.88;;;13.73;49.37
58072;BME280;60383;46.626;18.866;2024-02-16T09:58:26;101235.44;;;13.63;47.79
58072;BME280;60383;46.626;18.866;2024-02-16T10:00:53;101235.47;;;13.45;49.37
58072;BME280;60383;46.626;18.866;2024-02-16T10:03:27;101227.06;;;13.65;48.87
58072;BME280;60383;46.626;18.866;2024-02-16T10:06:07;101229.25;;;13.79;49.13
58072;BME280;60383;46.626;18.866;2024-02-16T10:08:33;101227.13;;;14.44;47.53
58072;BME280;60383;46.626;18.866;2024-02-16T10:11:03;101228.19;;;13.80;49.20
58072;BME280;60383;46.626;18.866;2024-02-16T10:13:30;101230.25;;;14.22;48.12
58072;BME280;60383;46.626;18.866;2024-02-16T10:16:10;101228.38;;;14.58;48.63
58072;BME280;60383;46.626;18.866;2024-02-16T10:18:36;101224.72;;;14.75;47.81
58072;BME280;60383;46.626;18.866;2024-02-16T10:21:02;101217.59;;;15.07;46.57
58072;BME280;60383;46.626;18.866;2024-02-16T10:23:28;101211.88;;;15.00;46.15
58072;BME280;60383;46.626;18.866;2024-02-16T10:25:54;101207.63;;;15.31;47.46
58072;BME280;60383;46.626;18.866;2024-02-16T10:28:20;101207.72;;;14.96;46.63
58072;BME280;60383;46.626;18.866;2024-02-16T10:30:48;101207.25;;;15.01;48.02
58072;BME280;60383;46.626;18.866;2024-02-16T10:33:13;101211.59;;;15.12;45.62
58072;BME280;60383;46.626;18.866;2024-02-16T10:35:39;101206.72;;;14.97;45.89
58072;BME280;60383;46.626;18.866;2024-02-16T10:38:07;101203.66;;;14.40;46.34
58072;BME280;60383;46.626;18.866;2024-02-16T10:40:40;101190.47;;;14.86;47.60
58072;BME280;60383;46.626;18.866;2024-02-16T10:43:06;101186.81;;;14.77;46.97
58072;BME280;60383;46.626;18.866;2024-02-16T10:45:36;101197.13;;;14.67;46.34
58072;BME280;60383;46.626;18.866;2024-02-16T10:48:03;101191.88;;;14.98;46.29
58072;BME280;60383;46.626;18.866;2024-02-16T10:50:31;101179.13;;;14.97;46.22
58072;BME280;60383;46.626;18.866;2024-02-16T10:53:00;101182.56;;;14.91;46.71
58072;BME280;60383;46.626;18.866;2024-02-16T10:55:28;101178.50;;;14.69;46.03
58072;BME280;60383;46.626;18.866;2024-02-16T10:57:56;101177.09;;;14.65;46.16
58072;BME280;60383;46.626;18.866;2024-02-16T11:00:22;101175.59;;;14.71;46.13
58072;BME280;60383;46.626;18.866;2024-02-16T11:02:57;101165.00;;;14.23;46.68
58072;BME280;60383;46.626;18.866;2024-02-16T11:05:40;101164.00;;;14.24;47.34
58072;BME280;60383;46.626;18.866;2024-02-16T11:08:13;101166.50;;;14.52;47.37
58072;BME280;60383;46.626;18.866;2024-02-16T11:10:39;101159.41;;;14.76;46.54
58072;BME280;60383;46.626;18.866;2024-02-16T11:13:05;101156.19;;;14.89;46.37
58072;BME280;60383;46.626;18.866;2024-02-16T11:15:32;101148.09;;;15.04;47.33
58072;BME280;60383;46.626;18.866;2024-02-16T11:18:00;101152.56;;;14.96;45.61
58072;BME280;60383;46.626;18.866;2024-02-16T11:20:26;101153.47;;;15.22;46.51
58072;BME280;60383;46.626;18.866;2024-02-16T11:22:52;101148.66;;;15.24;45.18
58072;BME280;60383;46.626;18.866;2024-02-16T11:25:18;101144.28;;;14.96;45.65
58072;BME280;60383;46.626;18.866;2024-02-16T11:27:46;101144.09;;;14.90;46.68
58072;BME280;60383;46.626;18.866;2024-02-16T11:30:12;101149.16;;;15.11;45.93
58072;BME280;60383;46.626;18.866;2024-02-16T11:32:38;101140.34;;;14.56;47.04
58072;BME280;60383;46.626;18.866;2024-02-16T11:35:06;101141.63;;;14.70;46.17
58072;BME280;60383;46.626;18.866;2024-02-16T11:37:33;101137.13;;;14.26;46.42
58072;BME280;60383;46.626;18.866;2024-02-16T11:39:59;101138.50;;;14.65;47.20
58072;BME280;60383;46.626;18.866;2024-02-16T11:42:24;101132.03;;;14.91;45.91
58072;BME280;60383;46.626;18.866;2024-02-16T11:44:54;101125.84;;;14.89;45.02
58072;BME280;60383;46.626;18.866;2024-02-16T11:47:21;101127.78;;;15.13;45.06
58072;BME280;60383;46.626;18.866;2024-02-16T11:50:11;101129.00;;;15.35;44.81
58072;BME280;60383;46.626;18.866;2024-02-16T11:52:41;101123.59;;;15.00;45.26
58072;BME280;60383;46.626;18.866;2024-02-16T11:55:12;101121.44;;;15.37;44.96
58072;BME280;60383;46.626;18.866;2024-02-16T11:57:40;101119.16;;;15.24;44.58
58072;BME280;60383;46.626;18.866;2024-02-16T12:00:06;101117.03;;;14.93;44.76
58072;BME280;60383;46.626;18.866;2024-02-16T12:02:36;101115.72;;;15.06;45.73
58072;BME280;60383;46.626;18.866;2024-02-16T12:05:03;101105.38;;;15.41;46.32
58072;BME280;60383;46.626;18.866;2024-02-16T12:07:30;101109.66;;;15.52;45.35
58072;BME280;60383;46.626;18.866;2024-02-16T12:10:00;101105.72;;;15.46;44.63
58072;BME280;60383;46.626;18.866;2024-02-16T12:12:27;101106.53;;;15.79;45.30
58072;BME280;60383;46.626;18.866;2024-02-16T12:14:53;101105.00;;;15.93;43.84
58072;BME280;60383;46.626;18.866;2024-02-16T12:17:19;101092.94;;;15.53;43.41
58072;BME280;60383;46.626;18.866;2024-02-16T12:19:46;101109.66;;;15.10;43.52
58072;BME280;60383;46.626;18.866;2024-02-16T12:22:17;101102.56;;;14.40;46.22
58072;BME280;60383;46.626;18.866;2024-02-16T12:24:44;101094.50;;;14.47;46.50
58072;BME280;60383;46.626;18.866;2024-02-16T12:27:10;101084.25;;;14.74;46.35
58072;BME280;60383;46.626;18.866;2024-02-16T12:29:35;101089.47;;;13.99;47.16
58072;BME280;60383;46.626;18.866;2024-02-16T12:32:01;101088.09;;;14.38;47.66
58072;BME280;60383;46.626;18.866;2024-02-16T12:34:26;101086.09;;;13.79;48.74
58072;BME280;60383;46.626;18.866;2024-02-16T12:36:52;101097.06;;;14.05;46.69
58072;BME280;60383;46.626;18.866;2024-02-16T12:39:17;101092.09;;;14.52;46.49
58072;BME280;60383;46.626;18.866;2024-02-16T12:41:42;101090.91;;;14.63;45.32